sensor_id;sensor_type;location;lat;lon;timestamp;P1;durP1;ratioP1;P2;durP2;ratioP2
58446;SDS011;44240;51.840;7.258;2022-07-06T00:01:19;14.23;;;3.30;;
58446;SDS011;44240;51.840;7.258;2022-07-06T00:03:45;7.10;;;3.78;;
58446;SDS011;44240;51.840;7.258;2022-07-06T00:06:11;5.45;;;3.60;;
58446;SDS011;44240;51.840;7.258;2022-07-06T00:08:37;3.97;;;3.40;;
58446;SDS011;44240;51.840;7.258;2022-07-06T00:11:03;6.78;;;3.08;;
58446;SDS011;44240;51.840;7.258;2022-07-06T00:13:29;7.03;;;3.17;;
58446;SDS011;44240;51.840;7.258;2022-07-06T00:15:55;5.97;;;2.97;;
58446;SDS011;44240;51.840;7.258;2022-07-06T00:18:21;4.28;;;3.20;;
58446;SDS011;44240;51.840;7.258;2022-07-06T00:20:46;6.60;;;3.13;;
58446;SDS011;44240;51.840;7.258;2022-07-06T00:23:12;6.18;;;3.13;;
58446;SDS011;44240;51.840;7.258;2022-07-06T00:25:37;8.07;;;3.40;;
58446;SDS011;44240;51.840;7.258;2022-07-06T00:28:03;4.00;;;2.90;;
58446;SDS011;44240;51.840;7.258;2022-07-06T00:30:28;5.20;;;3.40;;
58446;SDS011;44240;51.840;7.258;2022-07-06T00:32:54;4.35;;;3.45;;
58446;SDS011;44240;51.840;7.258;2022-07-06T00:35:20;5.18;;;3.55;;
58446;SDS011;44240;51.840;7.258;2022-07-06T00:37:45;5.55;;;3.42;;
58446;SDS011;44240;51.840;7.258;2022-07-06T00:40:11;8.18;;;3.65;;
58446;SDS011;44240;51.840;7.258;2022-07-06T00:42:41;4.45;;;3.50;;
58446;SDS011;44240;51.840;7.258;2022-07-06T00:45:08;4.75;;;3.53;;
58446;SDS011;44240;51.840;7.258;2022-07-06T00:47:34;6.28;;;3.53;;
58446;SDS011;44240;51.840;7.258;2022-07-06T00:50:00;4.78;;;3.40;;
58446;SDS011;44240;51.840;7.258;2022-07-06T00:52:50;4.68;;;3.58;;
58446;SDS011;44240;51.840;7.258;2022-07-06T00:55:18;7.47;;;3.47;;
58446;SDS011;44240;51.840;7.258;2022-07-06T00:57:45;6.68;;;3.58;;
58446;SDS011;44240;51.840;7.258;2022-07-06T01:00:12;4.70;;;3.60;;
58446;SDS011;44240;51.840;7.258;2022-07-06T01:02:40;8.13;;;3.58;;
58446;SDS011;44240;51.840;7.258;2022-07-06T01:05:06;5.35;;;3.85;;
58446;SDS011;44240;51.840;7.258;2022-07-06T01:07:33;6.10;;;3.50;;
58446;SDS011;44240;51.840;7.258;2022-07-06T01:10:01;7.50;;;4.25;;
58446;SDS011;44240;51.840;7.258;2022-07-06T01:12:28;6.47;;;3.67;;
58446;SDS011;44240;51.840;7.258;2022-07-06T01:14:53;5.95;;;3.78;;
58446;SDS011;44240;51.840;7.258;2022-07-06T01:17:19;4.28;;;3.83;;
58446;SDS011;44240;51.840;7.258;2022-07-06T01:19:46;6.70;;;3.60;;
58446;SDS011;44240;51.840;7.258;2022-07-06T01:22:11;5.78;;;3.95;;
58446;SDS011;44240;51.840;7.258;2022-07-06T01:24:37;4.78;;;4.20;;
58446;SDS011;44240;51.840;7.258;2022-07-06T01:27:03;6.15;;;3.83;;
58446;SDS011;44240;51.840;7.258;2022-07-06T01:29:29;8.00;;;4.35;;
58446;SDS011;44240;51.840;7.258;2022-07-06T01:31:55;6.60;;;4.43;;
58446;SDS011;44240;51.840;7.258;2022-07-06T01:34:20;10.75;;;4.05;;
58446;SDS011;44240;51.840;7.258;2022-07-06T01:36:46;6.57;;;4.97;;
58446;SDS011;44240;51.840;7.258;2022-07-06T01:39:12;6.28;;;4.53;;
58446;SDS011;44240;51.840;7.258;2022-07-06T01:41:37;6.10;;;4.38;;
58446;SDS011;44240;51.840;7.258;2022-07-06T01:44:03;6.40;;;3.42;;
58446;SDS011;44240;51.840;7.258;2022-07-06T01:46:29;5.18;;;4.10;;
58446;SDS011;44240;51.840;7.258;2022-07-06T01:48:55;9.23;;;4.80;;
58446;SDS011;44240;51.840;7.258;2022-07-06T01:51:21;9.98;;;4.85;;
58446;SDS011;44240;51.840;7.258;2022-07-06T01:53:48;7.68;;;4.20;;
58446;SDS011;44240;51.840;7.258;2022-07-06T01:56:13;4.82;;;4.30;;
58446;SDS011;44240;51.840;7.258;2022-07-06T01:58:39;6.03;;;3.97;;
58446;SDS011;44240;51.840;7.258;2022-07-06T02:01:11;6.35;;;4.03;;
58446;SDS011;44240;51.840;7.258;2022-07-06T02:03:39;5.03;;;3.72;;
58446;SDS011;44240;51.840;7.258;2022-07-06T02:06:05;8.55;;;4.45;;
58446;SDS011;44240;51.840;7.258;2022-07-06T02:08:31;6.90;;;4.28;;
58446;SDS011;44240;51.840;7.258;2022-07-06T02:10:57;7.25;;;4.57;;
58446;SDS011;44240;51.840;7.258;2022-07-06T02:13:23;12.05;;;4.35;;
58446;SDS011;44240;51.840;7.258;2022-07-06T02:15:49;7.93;;;4.40;;
58446;SDS011;44240;51.840;7.258;2022-07-06T02:18:14;11.02;;;4.43;;
58446;SDS011;44240;51.840;7.258;2022-07-06T02:20:41;12.38;;;5.47;;
58446;SDS011;44240;51.840;7.258;2022-07-06T02:23:07;6.10;;;4.13;;
58446;SDS011;44240;51.840;7.258;2022-07-06T02:25:32;11.07;;;5.70;;
58446;SDS011;44240;51.840;7.258;2022-07-06T02:27:58;6.22;;;4.47;;
58446;SDS011;44240;51.840;7.258;2022-07-06T02:30:23;6.18;;;4.20;;
58446;SDS011;44240;51.840;7.258;2022-07-06T02:32:49;5.80;;;4.30;;
58446;SDS011;44240;51.840;7.258;2022-07-06T02:35:14;6.18;;;4.45;;
58446;SDS011;44240;51.840;7.258;2022-07-06T02:37:40;6.15;;;3.83;;
58446;SDS011;44240;51.840;7.258;2022-07-06T02:40:06;5.53;;;4.25;;
58446;SDS011;44240;51.840;7.258;2022-07-06T02:42:32;8.70;;;4.60;;
58446;SDS011;44240;51.840;7.258;2022-07-06T02:44:58;5.25;;;4.20;;
58446;SDS011;44240;51.840;7.258;2022-07-06T02:47:23;5.15;;;3.85;;
58446;SDS011;44240;51.840;7.258;2022-07-06T02:49:51;6.88;;;4.15;;
58446;SDS011;44240;51.840;7.258;2022-07-06T02:52:17;10.77;;;4.40;;
58446;SDS011;44240;51.840;7.258;2022-07-06T02:54:43;5.43;;;4.30;;
58446;SDS011;44240;51.840;7.258;2022-07-06T02:57:08;6.03;;;4.20;;
58446;SDS011;44240;51.840;7.258;2022-07-06T02:59:34;6.18;;;4.05;;
58446;SDS011;44240;51.840;7.258;2022-07-06T03:01:59;6.30;;;4.57;;
58446;SDS011;44240;51.840;7.258;2022-07-06T03:04:25;7.70;;;4.80;;
58446;SDS011;44240;51.840;7.258;2022-07-06T03:06:50;7.55;;;4.57;;
58446;SDS011;44240;51.840;7.258;2022-07-06T03:09:16;8.07;;;4.00;;
58446;SDS011;44240;51.840;7.258;2022-07-06T03:11:41;5.15;;;3.97;;
58446;SDS011;44240;51.840;7.258;2022-07-06T03:14:07;6.13;;;4.07;;
58446;SDS011;44240;51.840;7.258;2022-07-06T03:16:33;7.40;;;4.90;;
58446;SDS011;44240;51.840;7.258;2022-07-06T03:18:58;4.85;;;3.72;;
58446;SDS011;44240;51.840;7.258;2022-07-06T03:21:24;8.50;;;4.13;;
58446;SDS011;44240;51.840;7.258;2022-07-06T03:23:50;6.10;;;3.63;;
58446;SDS011;44240;51.840;7.258;2022-07-06T03:26:15;11.27;;;4.30;;
58446;SDS011;44240;51.840;7.258;2022-07-06T03:28:41;8.93;;;3.90;;
58446;SDS011;44240;51.840;7.258;2022-07-06T03:31:07;5.20;;;3.90;;
58446;SDS011;44240;51.840;7.258;2022-07-06T03:33:32;7.85;;;4.70;;
58446;SDS011;44240;51.840;7.258;2022-07-06T03:35:58;9.35;;;4.10;;
58446;SDS011;44240;51.840;7.258;2022-07-06T03:38:24;7.35;;;4.10;;
58446;SDS011;44240;51.840;7.258;2022-07-06T03:40:49;6.72;;;4.28;;
58446;SDS011;44240;51.840;7.258;2022-07-06T03:43:15;5.15;;;3.80;;
58446;SDS011;44240;51.840;7.258;2022-07-06T03:45:40;11.07;;;4.53;;
58446;SDS011;44240;51.840;7.258;2022-07-06T03:48:06;7.22;;;4.00;;
58446;SDS011;44240;51.840;7.258;2022-07-06T03:50:32;9.10;;;4.55;;
58446;SDS011;44240;51.840;7.258;2022-07-06T03:52:57;6.88;;;4.10;;
58446;SDS011;44240;51.840;7.258;2022-07-06T03:55:23;8.95;;;4.28;;
58446;SDS011;44240;51.840;7.258;2022-07-06T03:57:48;5.93;;;4.20;;
58446;SDS011;44240;51.840;7.258;2022-07-06T04:00:14;5.65;;;4.20;;
58446;SDS011;44240;51.840;7.258;2022-07-06T04:02:40;4.68;;;4.00;;
58446;SDS011;44240;51.840;7.258;2022-07-06T04:05:05;9.63;;;4.07;;
58446;SDS011;44240;51.840;7.258;2022-07-06T04:07:31;6.57;;;4.30;;
58446;SDS011;44240;51.840;7.258;2022-07-06T04:09:57;5.65;;;4.00;;
58446;SDS011;44240;51.840;7.258;2022-07-06T04:12:22;8.68;;;4.70;;
58446;SDS011;44240;51.840;7.258;2022-07-06T04:14:48;7.60;;;4.18;;
58446;SDS011;44240;51.840;7.258;2022-07-06T04:17:14;8.23;;;4.15;;
58446;SDS011;44240;51.840;7.258;2022-07-06T04:19:58;9.32;;;4.78;;
58446;SDS011;44240;51.840;7.258;2022-07-06T04:22:24;9.85;;;4.20;;
58446;SDS011;44240;51.840;7.258;2022-07-06T04:24:49;5.18;;;4.63;;
58446;SDS011;44240;51.840;7.258;2022-07-06T04:27:15;9.02;;;4.18;;
58446;SDS011;44240;51.840;7.258;2022-07-06T04:29:41;6.93;;;4.25;;
58446;SDS011;44240;51.840;7.258;2022-07-06T04:32:06;7.70;;;4.70;;
58446;SDS011;44240;51.840;7.258;2022-07-06T04:34:32;6.80;;;4.38;;
58446;SDS011;44240;51.840;7.258;2022-07-06T04:36:58;8.88;;;4.65;;
58446;SDS011;44240;51.840;7.258;2022-07-06T04:39:23;5.90;;;4.22;;
58446;SDS011;44240;51.840;7.258;2022-07-06T04:41:49;6.55;;;4.30;;
58446;SDS011;44240;51.840;7.258;2022-07-06T04:44:14;7.00;;;4.97;;
58446;SDS011;44240;51.840;7.258;2022-07-06T04:46:40;7.28;;;4.88;;
58446;SDS011;44240;51.840;7.258;2022-07-06T04:49:05;8.23;;;5.15;;
58446;SDS011;44240;51.840;7.258;2022-07-06T04:51:31;6.85;;;4.70;;
58446;SDS011;44240;51.840;7.258;2022-07-06T04:53:57;7.38;;;5.18;;
58446;SDS011;44240;51.840;7.258;2022-07-06T04:56:22;8.30;;;5.18;;
58446;SDS011;44240;51.840;7.258;2022-07-06T04:58:48;8.48;;;4.95;;
58446;SDS011;44240;51.840;7.258;2022-07-06T05:01:14;7.43;;;4.53;;
58446;SDS011;44240;51.840;7.258;2022-07-06T05:03:39;7.57;;;5.00;;
58446;SDS011;44240;51.840;7.258;2022-07-06T05:06:06;10.85;;;4.43;;
58446;SDS011;44240;51.840;7.258;2022-07-06T05:08:33;6.43;;;4.00;;
58446;SDS011;44240;51.840;7.258;2022-07-06T05:10:59;8.82;;;4.35;;
58446;SDS011;44240;51.840;7.258;2022-07-06T05:13:25;7.13;;;4.82;;
58446;SDS011;44240;51.840;7.258;2022-07-06T05:15:50;9.95;;;4.28;;
58446;SDS011;44240;51.840;7.258;2022-07-06T05:18:16;6.00;;;4.55;;
58446;SDS011;44240;51.840;7.258;2022-07-06T05:20:41;10.98;;;4.20;;
58446;SDS011;44240;51.840;7.258;2022-07-06T05:23:07;5.68;;;3.72;;
58446;SDS011;44240;51.840;7.258;2022-07-06T05:25:33;7.72;;;4.38;;
58446;SDS011;44240;51.840;7.258;2022-07-06T05:27:59;9.68;;;4.10;;
58446;SDS011;44240;51.840;7.258;2022-07-06T05:30:25;7.30;;;3.95;;
58446;SDS011;44240;51.840;7.258;2022-07-06T05:32:51;6.55;;;3.70;;
58446;SDS011;44240;51.840;7.258;2022-07-06T05:35:16;6.22;;;4.05;;
58446;SDS011;44240;51.840;7.258;2022-07-06T05:37:42;7.07;;;3.67;;
58446;SDS011;44240;51.840;7.258;2022-07-06T05:40:08;6.00;;;4.30;;
58446;SDS011;44240;51.840;7.258;2022-07-06T05:42:34;6.13;;;4.28;;
58446;SDS011;44240;51.840;7.258;2022-07-06T05:45:00;6.03;;;4.35;;
58446;SDS011;44240;51.840;7.258;2022-07-06T05:47:25;4.07;;;3.50;;
58446;SDS011;44240;51.840;7.258;2022-07-06T05:50:09;8.10;;;4.40;;
58446;SDS011;44240;51.840;7.258;2022-07-06T05:52:38;9.02;;;4.10;;
58446;SDS011;44240;51.840;7.258;2022-07-06T05:55:04;4.85;;;3.88;;
58446;SDS011;44240;51.840;7.258;2022-07-06T05:57:31;8.18;;;4.22;;
58446;SDS011;44240;51.840;7.258;2022-07-06T05:59:56;7.70;;;3.75;;
58446;SDS011;44240;51.840;7.258;2022-07-06T06:02:22;4.90;;;3.70;;
58446;SDS011;44240;51.840;7.258;2022-07-06T06:04:47;9.80;;;3.65;;
58446;SDS011;44240;51.840;7.258;2022-07-06T06:07:13;9.98;;;3.78;;
58446;SDS011;44240;51.840;7.258;2022-07-06T06:09:38;7.22;;;3.83;;
58446;SDS011;44240;51.840;7.258;2022-07-06T06:12:04;7.47;;;3.47;;
58446;SDS011;44240;51.840;7.258;2022-07-06T06:14:30;5.95;;;3.25;;
58446;SDS011;44240;51.840;7.258;2022-07-06T06:16:55;8.80;;;3.47;;
58446;SDS011;44240;51.840;7.258;2022-07-06T06:19:21;9.38;;;3.08;;
58446;SDS011;44240;51.840;7.258;2022-07-06T06:21:46;8.77;;;3.28;;
58446;SDS011;44240;51.840;7.258;2022-07-06T06:24:12;5.35;;;2.90;;
58446;SDS011;44240;51.840;7.258;2022-07-06T06:26:37;6.60;;;2.60;;
58446;SDS011;44240;51.840;7.258;2022-07-06T06:29:03;3.33;;;2.90;;
58446;SDS011;44240;51.840;7.258;2022-07-06T06:31:28;8.65;;;3.05;;
58446;SDS011;44240;51.840;7.258;2022-07-06T06:33:54;5.28;;;3.00;;
58446;SDS011;44240;51.840;7.258;2022-07-06T06:36:19;4.15;;;2.55;;
58446;SDS011;44240;51.840;7.258;2022-07-06T06:38:45;6.00;;;2.50;;
58446;SDS011;44240;51.840;7.258;2022-07-06T06:41:10;8.48;;;3.28;;
58446;SDS011;44240;51.840;7.258;2022-07-06T06:43:36;7.35;;;2.70;;
58446;SDS011;44240;51.840;7.258;2022-07-06T06:46:02;5.15;;;2.65;;
58446;SDS011;44240;51.840;7.258;2022-07-06T06:48:28;6.75;;;2.80;;
58446;SDS011;44240;51.840;7.258;2022-07-06T06:50:54;7.13;;;2.53;;
58446;SDS011;44240;51.840;7.258;2022-07-06T06:53:19;4.18;;;2.80;;
58446;SDS011;44240;51.840;7.258;2022-07-06T06:55:45;4.40;;;2.30;;
58446;SDS011;44240;51.840;7.258;2022-07-06T06:58:10;14.60;;;2.67;;
58446;SDS011;44240;51.840;7.258;2022-07-06T07:00:36;9.90;;;2.20;;
58446;SDS011;44240;51.840;7.258;2022-07-06T07:03:01;5.00;;;2.40;;
58446;SDS011;44240;51.840;7.258;2022-07-06T07:05:27;4.93;;;2.40;;
58446;SDS011;44240;51.840;7.258;2022-07-06T07:07:53;3.95;;;2.28;;
58446;SDS011;44240;51.840;7.258;2022-07-06T07:10:19;3.15;;;1.92;;
58446;SDS011;44240;51.840;7.258;2022-07-06T07:12:46;4.65;;;1.75;;
58446;SDS011;44240;51.840;7.258;2022-07-06T07:15:12;5.28;;;2.00;;
58446;SDS011;44240;51.840;7.258;2022-07-06T07:17:38;6.00;;;2.28;;
58446;SDS011;44240;51.840;7.258;2022-07-06T07:20:04;1.70;;;1.60;;
58446;SDS011;44240;51.840;7.258;2022-07-06T07:22:30;3.10;;;1.80;;
58446;SDS011;44240;51.840;7.258;2022-07-06T07:24:56;8.98;;;2.28;;
58446;SDS011;44240;51.840;7.258;2022-07-06T07:27:23;2.65;;;1.92;;
58446;SDS011;44240;51.840;7.258;2022-07-06T07:29:49;2.42;;;1.65;;
58446;SDS011;44240;51.840;7.258;2022-07-06T07:32:15;2.58;;;1.77;;
58446;SDS011;44240;51.840;7.258;2022-07-06T07:34:40;3.85;;;1.67;;
58446;SDS011;44240;51.840;7.258;2022-07-06T07:37:06;5.13;;;1.90;;
58446;SDS011;44240;51.840;7.258;2022-07-06T07:39:32;5.07;;;1.83;;
58446;SDS011;44240;51.840;7.258;2022-07-06T07:41:57;3.90;;;1.65;;
58446;SDS011;44240;51.840;7.258;2022-07-06T07:44:23;2.78;;;1.42;;
58446;SDS011;44240;51.840;7.258;2022-07-06T07:46:49;2.05;;;1.30;;
58446;SDS011;44240;51.840;7.258;2022-07-06T07:49:17;4.75;;;2.05;;
58446;SDS011;44240;51.840;7.258;2022-07-06T07:51:43;3.88;;;1.42;;
58446;SDS011;44240;51.840;7.258;2022-07-06T07:54:11;4.18;;;1.48;;
58446;SDS011;44240;51.840;7.258;2022-07-06T07:56:37;3.60;;;1.70;;
58446;SDS011;44240;51.840;7.258;2022-07-06T07:59:05;5.65;;;1.77;;
58446;SDS011;44240;51.840;7.258;2022-07-06T08:01:31;5.68;;;1.30;;
58446;SDS011;44240;51.840;7.258;2022-07-06T08:03:57;7.60;;;1.73;;
58446;SDS011;44240;51.840;7.258;2022-07-06T08:06:23;1.25;;;1.05;;
58446;SDS011;44240;51.840;7.258;2022-07-06T08:08:48;7.07;;;2.17;;
58446;SDS011;44240;51.840;7.258;2022-07-06T08:11:14;9.82;;;1.75;;
58446;SDS011;44240;51.840;7.258;2022-07-06T08:13:39;4.18;;;1.27;;
58446;SDS011;44240;51.840;7.258;2022-07-06T08:16:05;1.83;;;1.27;;
58446;SDS011;44240;51.840;7.258;2022-07-06T08:18:31;3.13;;;1.45;;
58446;SDS011;44240;51.840;7.258;2022-07-06T08:20:56;2.15;;;1.02;;
58446;SDS011;44240;51.840;7.258;2022-07-06T08:23:22;3.28;;;1.25;;
58446;SDS011;44240;51.840;7.258;2022-07-06T08:25:48;3.25;;;1.13;;
58446;SDS011;44240;51.840;7.258;2022-07-06T08:28:14;1.75;;;1.10;;
58446;SDS011;44240;51.840;7.258;2022-07-06T08:30:39;1.05;;;0.90;;
58446;SDS011;44240;51.840;7.258;2022-07-06T08:33:05;3.75;;;1.58;;
58446;SDS011;44240;51.840;7.258;2022-07-06T08:35:30;2.22;;;1.23;;
58446;SDS011;44240;51.840;7.258;2022-07-06T08:37:56;3.90;;;1.23;;
58446;SDS011;44240;51.840;7.258;2022-07-06T08:40:22;2.00;;;1.02;;
58446;SDS011;44240;51.840;7.258;2022-07-06T08:42:48;2.22;;;1.42;;
58446;SDS011;44240;51.840;7.258;2022-07-06T08:45:18;3.13;;;1.05;;
58446;SDS011;44240;51.840;7.258;2022-07-06T08:47:45;5.25;;;1.02;;
58446;SDS011;44240;51.840;7.258;2022-07-06T08:50:14;8.95;;;1.13;;
58446;SDS011;44240;51.840;7.258;2022-07-06T08:52:41;1.30;;;0.90;;
58446;SDS011;44240;51.840;7.258;2022-07-06T08:55:10;3.17;;;0.93;;
58446;SDS011;44240;51.840;7.258;2022-07-06T08:57:37;1.50;;;0.93;;
58446;SDS011;44240;51.840;7.258;2022-07-06T09:00:05;3.10;;;0.90;;
58446;SDS011;44240;51.840;7.258;2022-07-06T09:02:32;3.42;;;1.50;;
58446;SDS011;44240;51.840;7.258;2022-07-06T09:04:58;2.53;;;1.13;;
58446;SDS011;44240;51.840;7.258;2022-07-06T09:07:27;2.95;;;0.98;;
58446;SDS011;44240;51.840;7.258;2022-07-06T09:09:54;3.92;;;1.15;;
58446;SDS011;44240;51.840;7.258;2022-07-06T09:12:20;4.78;;;1.10;;
58446;SDS011;44240;51.840;7.258;2022-07-06T09:14:46;2.47;;;1.20;;
58446;SDS011;44240;51.840;7.258;2022-07-06T09:17:12;5.05;;;0.70;;
58446;SDS011;44240;51.840;7.258;2022-07-06T09:19:38;2.50;;;0.90;;
58446;SDS011;44240;51.840;7.258;2022-07-06T09:22:04;4.13;;;0.68;;
58446;SDS011;44240;51.840;7.258;2022-07-06T09:24:30;2.17;;;0.70;;
58446;SDS011;44240;51.840;7.258;2022-07-06T09:26:59;2.85;;;0.77;;
58446;SDS011;44240;51.840;7.258;2022-07-06T09:29:29;1.88;;;0.90;;
58446;SDS011;44240;51.840;7.258;2022-07-06T09:31:59;1.98;;;0.60;;
58446;SDS011;44240;51.840;7.258;2022-07-06T09:34:42;2.63;;;0.80;;
58446;SDS011;44240;51.840;7.258;2022-07-06T09:37:08;3.67;;;1.08;;
58446;SDS011;44240;51.840;7.258;2022-07-06T09:39:35;3.65;;;0.70;;
58446;SDS011;44240;51.840;7.258;2022-07-06T09:42:01;1.05;;;0.95;;
58446;SDS011;44240;51.840;7.258;2022-07-06T09:44:33;1.67;;;0.68;;
58446;SDS011;44240;51.840;7.258;2022-07-06T09:47:02;3.30;;;0.90;;
58446;SDS011;44240;51.840;7.258;2022-07-06T09:49:39;0.77;;;0.73;;
58446;SDS011;44240;51.840;7.258;2022-07-06T09:52:07;1.45;;;1.00;;
58446;SDS011;44240;51.840;7.258;2022-07-06T09:54:33;9.75;;;3.22;;
58446;SDS011;44240;51.840;7.258;2022-07-06T09:57:00;3.10;;;1.70;;
58446;SDS011;44240;51.840;7.258;2022-07-06T09:59:27;2.65;;;0.60;;
58446;SDS011;44240;51.840;7.258;2022-07-06T10:01:54;1.55;;;0.50;;
58446;SDS011;44240;51.840;7.258;2022-07-06T10:04:21;0.50;;;0.50;;
58446;SDS011;44240;51.840;7.258;2022-07-06T10:06:48;1.95;;;0.52;;
58446;SDS011;44240;51.840;7.258;2022-07-06T10:09:14;2.47;;;0.60;;
58446;SDS011;44240;51.840;7.258;2022-07-06T10:11:42;2.50;;;0.75;;
58446;SDS011;44240;51.840;7.258;2022-07-06T10:14:10;5.65;;;1.00;;
58446;SDS011;44240;51.840;7.258;2022-07-06T10:19:16;2.22;;;0.45;;
58446;SDS011;44240;51.840;7.258;2022-07-06T10:21:43;3.95;;;0.60;;
58446;SDS011;44240;51.840;7.258;2022-07-06T10:24:10;1.10;;;0.70;;
58446;SDS011;44240;51.840;7.258;2022-07-06T10:26:37;0.80;;;0.50;;
58446;SDS011;44240;51.840;7.258;2022-07-06T10:29:03;1.35;;;0.80;;
58446;SDS011;44240;51.840;7.258;2022-07-06T10:31:30;4.43;;;0.70;;
58446;SDS011;44240;51.840;7.258;2022-07-06T10:33:57;1.48;;;0.70;;
58446;SDS011;44240;51.840;7.258;2022-07-06T10:36:28;1.65;;;0.77;;
58446;SDS011;44240;51.840;7.258;2022-07-06T10:38:54;0.55;;;0.47;;
58446;SDS011;44240;51.840;7.258;2022-07-06T10:41:37;1.55;;;0.68;;
58446;SDS011;44240;51.840;7.258;2022-07-06T10:44:18;0.32;;;0.32;;
58446;SDS011;44240;51.840;7.258;2022-07-06T10:47:04;1.95;;;0.55;;
58446;SDS011;44240;51.840;7.258;2022-07-06T10:49:30;0.73;;;0.55;;
58446;SDS011;44240;51.840;7.258;2022-07-06T10:51:56;1.40;;;0.60;;
58446;SDS011;44240;51.840;7.258;2022-07-06T10:54:21;3.13;;;0.68;;
58446;SDS011;44240;51.840;7.258;2022-07-06T10:56:49;0.95;;;0.60;;
58446;SDS011;44240;51.840;7.258;2022-07-06T10:59:22;1.60;;;0.80;;
58446;SDS011;44240;51.840;7.258;2022-07-06T11:02:11;3.95;;;0.90;;
58446;SDS011;44240;51.840;7.258;2022-07-06T11:04:41;1.90;;;0.60;;
58446;SDS011;44240;51.840;7.258;2022-07-06T11:07:12;1.33;;;0.93;;
58446;SDS011;44240;51.840;7.258;2022-07-06T11:09:39;2.65;;;0.70;;
58446;SDS011;44240;51.840;7.258;2022-07-06T11:12:14;2.38;;;1.35;;
58446;SDS011;44240;51.840;7.258;2022-07-06T11:14:43;1.98;;;0.90;;
58446;SDS011;44240;51.840;7.258;2022-07-06T11:17:09;5.07;;;1.08;;
58446;SDS011;44240;51.840;7.258;2022-07-06T11:19:36;3.35;;;0.90;;
58446;SDS011;44240;51.840;7.258;2022-07-06T11:22:05;2.63;;;0.73;;
58446;SDS011;44240;51.840;7.258;2022-07-06T11:24:39;2.65;;;0.60;;
58446;SDS011;44240;51.840;7.258;2022-07-06T11:27:06;0.70;;;0.60;;
58446;SDS011;44240;51.840;7.258;2022-07-06T11:29:32;1.65;;;0.80;;
58446;SDS011;44240;51.840;7.258;2022-07-06T11:32:04;2.47;;;0.63;;
58446;SDS011;44240;51.840;7.258;2022-07-06T11:34:34;1.42;;;0.57;;
58446;SDS011;44240;51.840;7.258;2022-07-06T11:37:07;5.45;;;0.60;;
58446;SDS011;44240;51.840;7.258;2022-07-06T11:39:35;2.22;;;0.77;;
58446;SDS011;44240;51.840;7.258;2022-07-06T11:42:05;1.40;;;0.52;;
58446;SDS011;44240;51.840;7.258;2022-07-06T11:44:30;1.05;;;0.80;;
58446;SDS011;44240;51.840;7.258;2022-07-06T11:46:57;1.33;;;0.80;;
58446;SDS011;44240;51.840;7.258;2022-07-06T11:49:25;1.00;;;0.85;;
58446;SDS011;44240;51.840;7.258;2022-07-06T11:51:51;1.08;;;0.60;;
58446;SDS011;44240;51.840;7.258;2022-07-06T11:54:18;2.17;;;0.68;;
58446;SDS011;44240;51.840;7.258;2022-07-06T11:56:55;3.72;;;0.90;;
58446;SDS011;44240;51.840;7.258;2022-07-06T11:59:34;2.13;;;0.77;;
58446;SDS011;44240;51.840;7.258;2022-07-06T12:02:01;3.20;;;0.60;;
58446;SDS011;44240;51.840;7.258;2022-07-06T12:04:31;3.45;;;0.60;;
58446;SDS011;44240;51.840;7.258;2022-07-06T12:07:03;2.60;;;0.55;;
58446;SDS011;44240;51.840;7.258;2022-07-06T12:09:34;1.05;;;0.60;;
58446;SDS011;44240;51.840;7.258;2022-07-06T12:12:01;3.15;;;0.82;;
58446;SDS011;44240;51.840;7.258;2022-07-06T12:14:28;4.53;;;0.70;;
58446;SDS011;44240;51.840;7.258;2022-07-06T12:16:55;2.30;;;0.77;;
58446;SDS011;44240;51.840;7.258;2022-07-06T12:19:21;1.45;;;0.50;;
58446;SDS011;44240;51.840;7.258;2022-07-06T12:21:48;1.27;;;0.80;;
58446;SDS011;44240;51.840;7.258;2022-07-06T12:24:21;2.67;;;0.68;;
58446;SDS011;44240;51.840;7.258;2022-07-06T12:26:49;2.42;;;0.95;;
58446;SDS011;44240;51.840;7.258;2022-07-06T12:29:18;2.35;;;0.70;;
58446;SDS011;44240;51.840;7.258;2022-07-06T12:34:17;1.90;;;0.80;;
58446;SDS011;44240;51.840;7.258;2022-07-06T12:36:49;1.80;;;0.80;;
58446;SDS011;44240;51.840;7.258;2022-07-06T12:39:17;2.42;;;0.60;;
58446;SDS011;44240;51.840;7.258;2022-07-06T12:41:46;3.78;;;0.70;;
58446;SDS011;44240;51.840;7.258;2022-07-06T12:44:16;0.73;;;0.50;;
58446;SDS011;44240;51.840;7.258;2022-07-06T12:46:46;1.50;;;0.65;;
58446;SDS011;44240;51.840;7.258;2022-07-06T12:49:14;0.77;;;0.40;;
58446;SDS011;44240;51.840;7.258;2022-07-06T12:54:21;0.52;;;0.43;;
58446;SDS011;44240;51.840;7.258;2022-07-06T12:59:37;1.95;;;0.90;;
58446;SDS011;44240;51.840;7.258;2022-07-06T13:02:05;1.38;;;0.60;;
58446;SDS011;44240;51.840;7.258;2022-07-06T13:04:33;2.85;;;0.60;;
58446;SDS011;44240;51.840;7.258;2022-07-06T13:06:59;1.33;;;0.47;;
58446;SDS011;44240;51.840;7.258;2022-07-06T13:09:26;0.40;;;0.40;;
58446;SDS011;44240;51.840;7.258;2022-07-06T13:11:52;2.33;;;0.60;;
58446;SDS011;44240;51.840;7.258;2022-07-06T13:14:18;1.25;;;0.60;;
58446;SDS011;44240;51.840;7.258;2022-07-06T13:16:44;4.45;;;0.50;;
58446;SDS011;44240;51.840;7.258;2022-07-06T13:19:10;1.77;;;0.60;;
58446;SDS011;44240;51.840;7.258;2022-07-06T13:21:36;1.75;;;0.63;;
58446;SDS011;44240;51.840;7.258;2022-07-06T13:24:02;1.40;;;0.65;;
58446;SDS011;44240;51.840;7.258;2022-07-06T13:26:29;1.13;;;0.65;;
58446;SDS011;44240;51.840;7.258;2022-07-06T13:28:58;1.85;;;0.70;;
58446;SDS011;44240;51.840;7.258;2022-07-06T13:31:29;2.58;;;0.65;;
58446;SDS011;44240;51.840;7.258;2022-07-06T13:33:55;1.27;;;0.60;;
58446;SDS011;44240;51.840;7.258;2022-07-06T13:36:21;1.83;;;0.65;;
58446;SDS011;44240;51.840;7.258;2022-07-06T13:38:48;2.38;;;0.77;;
58446;SDS011;44240;51.840;7.258;2022-07-06T13:41:13;1.75;;;0.50;;
58446;SDS011;44240;51.840;7.258;2022-07-06T13:43:39;2.20;;;0.55;;
58446;SDS011;44240;51.840;7.258;2022-07-06T13:46:05;1.35;;;0.50;;
58446;SDS011;44240;51.840;7.258;2022-07-06T13:48:32;1.85;;;0.70;;
58446;SDS011;44240;51.840;7.258;2022-07-06T13:50:59;2.42;;;0.50;;
58446;SDS011;44240;51.840;7.258;2022-07-06T13:53:25;0.73;;;0.43;;
58446;SDS011;44240;51.840;7.258;2022-07-06T13:55:51;0.70;;;0.40;;
58446;SDS011;44240;51.840;7.258;2022-07-06T13:58:16;1.13;;;0.65;;
58446;SDS011;44240;51.840;7.258;2022-07-06T14:00:42;0.52;;;0.52;;
58446;SDS011;44240;51.840;7.258;2022-07-06T14:03:08;1.13;;;0.60;;
58446;SDS011;44240;51.840;7.258;2022-07-06T14:05:34;0.52;;;0.50;;
58446;SDS011;44240;51.840;7.258;2022-07-06T14:08:00;0.95;;;0.60;;
58446;SDS011;44240;51.840;7.258;2022-07-06T14:10:26;1.88;;;0.45;;
58446;SDS011;44240;51.840;7.258;2022-07-06T14:12:52;1.20;;;0.60;;
58446;SDS011;44240;51.840;7.258;2022-07-06T14:15:18;2.22;;;0.93;;
58446;SDS011;44240;51.840;7.258;2022-07-06T14:17:44;0.60;;;0.30;;
58446;SDS011;44240;51.840;7.258;2022-07-06T14:20:10;2.08;;;0.40;;
58446;SDS011;44240;51.840;7.258;2022-07-06T14:22:36;3.53;;;0.63;;
58446;SDS011;44240;51.840;7.258;2022-07-06T14:25:02;0.45;;;0.38;;
58446;SDS011;44240;51.840;7.258;2022-07-06T14:27:30;0.40;;;0.40;;
58446;SDS011;44240;51.840;7.258;2022-07-06T14:29:56;2.10;;;0.65;;
58446;SDS011;44240;51.840;7.258;2022-07-06T14:32:21;0.73;;;0.50;;
58446;SDS011;44240;51.840;7.258;2022-07-06T14:34:47;3.25;;;0.80;;
58446;SDS011;44240;51.840;7.258;2022-07-06T14:37:12;0.75;;;0.50;;
58446;SDS011;44240;51.840;7.258;2022-07-06T14:39:38;2.53;;;0.50;;
58446;SDS011;44240;51.840;7.258;2022-07-06T14:42:04;0.40;;;0.40;;
58446;SDS011;44240;51.840;7.258;2022-07-06T14:44:30;0.75;;;0.57;;
58446;SDS011;44240;51.840;7.258;2022-07-06T14:46:55;1.65;;;0.30;;
58446;SDS011;44240;51.840;7.258;2022-07-06T14:49:21;1.90;;;0.60;;
58446;SDS011;44240;51.840;7.258;2022-07-06T14:51:47;3.72;;;0.52;;
58446;SDS011;44240;51.840;7.258;2022-07-06T14:54:13;3.85;;;0.60;;
58446;SDS011;44240;51.840;7.258;2022-07-06T14:56:38;2.47;;;0.60;;